Terminal Aerodrome Forecast
Issued by NWS

Home | Current Version | Previous Version | Text Only | Print | Product List | Glossary On
Versions: 1 2 3 4 5 6 7 8 9 10 11 12
284
FTUS46 KSTO 200538
TAFSAC
TAF
KSAC 200538Z 2006/2106 19014G20KT P6SM VCSH SCT020 OVC050
      TEMPO 2006/2010 5SM -RA BR OVC020
     FM201000 28008KT P6SM BKN100
     FM201700 27007KT P6SM SCT050=

USA.gov is the U.S. government's official web portal to all federal, state and local government web resources and services.